Latest Coastal Weather Observations for Cape Nelson

IDV60701

Issued at 2:41 am EST Friday 26 August 2016 (issued every 10 minutes, with the page automatically refreshed every 10 minutes)

About coastal observations | Map of coastal stations | Coastal observations for VIC | Marine services | Other Formats
Station Details ID: 090184 Name: CAPE NELSON LIGHTHOUSE Lat: -38.43 Lon: 141.54 Height: 45.4 m
Data from the previous 72 hours. | See also: Recent months at Cape Nelson
Date/Time
EST
Temp
°C
Wind Pressure Rain since
9am
mm
Weather Cloud Vis
km
Sea
Height
m
Swell
Dir  Spd
kts
Gust
kts
hPa Trend Height
m
Period
s
Dir
26/02:30am 10.8 W 12 17 1020.4 - 1.0 - - - - - - -
26/02:00am 10.9 W 13 18 1020.4 - 1.0 - - - - - - -
26/01:30am 10.9 WNW 8 15 1020.5 - 1.0 - - - - - - -
26/01:00am 10.8 NNW 8 12 1020.3 - 1.0 - - - - - - -
26/12:30am 10.7 NE 6 11 1020.3 - 1.0 - - - - - - -
26/12:00am 10.6 NNE 6 11 1020.5 - 1.0 - - - - - - -
 
Date/Time
EST
Temp
°C
Wind Pressure Rain since
9am
mm
Weather Cloud Vis
km
Sea
Height
m
Swell
Dir  Spd
kts
Gust
kts
hPa Trend Height
m
Period
s
Dir
25/11:30pm 10.3 NNW 7 11 1020.5 - 1.0 - - - - - - -
25/11:00pm 10.7 W 12 16 1020.7 - 1.0 - - - - - - -
25/10:30pm 10.3 NNE 7 15 1020.8 - 1.0 - - - - - - -
25/10:00pm 10.4 NW 7 12 1020.8 - 1.0 - - - - - - -
25/09:30pm 9.8 NE 5 10 1020.8 - 1.0 - - - - - - -
25/09:00pm 10.6 N 7 10 1020.4 - 1.0 - - - - - - -
25/08:30pm 10.3 NNE 7 9 1020.4 - 1.0 - - - - - - -
25/08:00pm 10.1 NE 7 11 1020.1 - 1.0 - - - - - - -
25/07:30pm 10.3 ENE 7 11 1019.8 - 1.0 - - - - - - -
25/07:00pm 10.4 NE 8 13 1019.5 - 1.0 - - - - - - -
25/06:30pm 10.8 E 7 16 1019.2 - 1.0 - - - - - - -
25/06:00pm 10.5 N 6 12 1019.1 - 1.0 Recent precip. - - - - - -
25/05:30pm 10.2 SSE 6 17 1018.9 - 0.8 - - - - - - -
25/05:00pm 10.6 E 7 11 1018.4 - 0.8 - - - - - - -
25/04:30pm 11.2 NNE 8 12 1018.2 - 0.8 - - - - - - -
25/04:00pm 11.0 SE 8 15 1018.2 - 0.8 - - - - - - -
25/03:30pm 10.8 S 11 20 1018.1 - 0.4 - - - - - - -
25/03:00pm 12.1 SSE 10 18 1017.9 - 0.2 - - - - - - -
25/02:30pm 12.5 S 8 13 1017.8 - 0.2 - - - - - - -
25/02:00pm 12.2 SSE 7 12 1017.8 - 0.2 - - - - - - -
25/01:30pm 11.6 SSE 8 16 1017.8 - 0.2 - - - - - - -
25/01:00pm 12.4 S 9 14 1017.9 - 0.2 - - - - - - -
25/12:30pm 12.1 S 10 15 1017.9 - 0.2 - - - - - - -
25/12:00pm 11.6 S 10 15 1018.0 - 0.2 - - - - - - -
25/11:30am 11.2 S 10 14 1018.0 - 0.2 - - - - - - -
25/11:00am 11.6 SE 7 11 1017.9 - 0.2 - - - - - - -
25/10:30am 11.4 S 12 17 1017.9 - 0.0 - - - - - - -
25/10:00am 10.7 S 15 21 1017.5 - 0.0 - - - - - - -
25/09:30am 11.1 S 15 21 1017.4 - 0.0 - - - - - - -
25/09:00am 10.8 S 12 18 1017.2 - 1.6 - - - - - - -
25/08:30am 10.2 S 11 18 1017.0 - 1.6 - - - - - - -
25/08:00am 10.1 S 15 21 1016.8 - 1.6 - - - - - - -
25/07:30am 9.6 S 15 21 1016.4 - 1.6 - - - - - - -
25/07:00am 9.3 S 17 24 1016.0 - 1.6 - - - - - - -
25/06:55am 9.1 S 15 24 1015.9 - 1.6 - - - - - - -
25/06:30am 8.8 SSE 8 13 1015.6 - 1.6 - - - - - - -
25/06:02am 8.5 S 16 26 1015.5 - 1.2 - - - - - - -
25/06:00am 8.7 S 17 26 1015.5 - 1.2 - - - - - - -
25/05:48am 9.1 S 16 26 1015.3 - 1.2 - - - - - - -
25/05:30am 9.0 S 16 20 1015.1 - 1.2 - - - - - - -
25/05:07am 9.1 S 15 25 1014.9 - 1.2 - - - - - - -
25/05:00am 8.9 S 12 19 1014.9 - 1.2 - - - - - - -
25/04:48am 9.3 ENE 11 29 1014.8 - 0.6 - - - - - - -
25/04:30am 9.1 NNE 8 15 1014.7 - 0.6 - - - - - - -
25/04:14am 10.4 S 15 24 1014.7 - 0.4 - - - - - - -
25/04:00am 10.4 SSE 10 16 1014.5 - 0.4 - - - - - - -
25/03:30am 10.6 S 12 22 1014.7 - 0.4 - - - - - - -
25/03:00am 10.7 S 14 21 1014.6 - 0.4 - - - - - - -
25/02:30am 10.2 S 12 19 1014.8 - 0.4 - - - - - - -
25/02:07am 10.4 S 15 25 1014.9 - 0.4 - - - - - - -
25/02:00am 10.4 S 15 25 1015.0 - 0.4 - - - - - - -
25/01:30am 10.6 S 17 24 1014.9 - 0.4 - - - - - - -
25/01:03am 10.7 S 15 26 1015.2 - 0.4 - - - - - - -
25/01:00am 10.5 SSE 13 21 1015.1 - 0.4 - - - - - - -
25/12:30am 9.8 SSE 11 20 1015.1 - 0.4 - - - - - - -
25/12:00am 9.0 ENE 10 20 1015.3 - 0.2 Rain - - - - - -
 
Date/Time
EST
Temp
°C
Wind Pressure Rain since
9am
mm
Weather Cloud Vis
km
Sea
Height
m
Swell
Dir  Spd
kts
Gust
kts
hPa Trend Height
m
Period
s
Dir
24/11:30pm 10.0 W 14 20 1015.5 - 0.0 - - - - - - -
24/11:00pm 10.0 NNE 8 13 1015.6 - 0.0 - - - - - - -
24/10:30pm 9.7 NNE 8 15 1015.7 - 0.0 - - - - - - -
24/10:00pm 10.2 NE 7 10 1015.9 - 0.0 - - - - - - -
24/09:30pm 10.2 E 7 13 1016.1 - 0.0 - - - - - - -
24/09:00pm 10.5 SE 8 18 1016.1 - 0.0 - - - - - - -
24/08:30pm 10.5 S 9 16 1016.2 - 0.0 - - - - - - -
24/08:00pm 10.2 S 8 15 1016.3 - 0.0 - - - - - - -
24/07:30pm 9.9 S 12 18 1016.4 - 0.0 - - - - - - -
24/07:00pm 10.2 S 12 15 1016.3 - 0.0 - - - - - - -
24/06:30pm 10.1 S 12 18 1016.2 - 0.0 - - - - - - -
24/06:00pm 10.4 S 12 15 1016.0 - 0.0 - - - - - - -
24/05:30pm 10.3 S 10 16 1015.9 - 0.0 - - - - - - -
24/05:00pm 10.5 S 11 18 1015.8 - 0.0 - - - - - - -
24/04:30pm 10.5 S 10 16 1015.7 - 0.0 - - - - - - -
24/04:00pm 11.5 S 9 13 1015.7 - 0.0 - - - - - - -
24/03:30pm 11.9 S 8 11 1015.8 - 0.0 - - - - - - -
24/03:00pm 11.8 S 9 13 1015.7 - 0.0 - - - - - - -
24/02:30pm 11.6 S 9 12 1015.8 - 0.0 - - - - - - -
24/02:00pm 12.0 S 9 14 1015.9 - 0.0 - - - - - - -
24/01:30pm 11.7 S 9 13 1016.0 - 0.0 - - - - - - -
24/01:00pm 11.9 S 10 14 1016.3 - 0.0 - - - - - - -
24/12:30pm 11.6 S 11 13 1016.4 - 0.0 - - - - - - -
24/12:00pm 11.5 S 12 15 1016.7 - 0.0 - - - - - - -
24/11:30am 11.8 SSE 10 14 1017.0 - 0.0 - - - - - - -
24/11:00am 11.0 S 10 14 1017.0 - 0.0 - - - - - - -
24/10:30am 11.4 SSE 9 14 1017.1 - 0.0 - - - - - - -
24/10:00am 11.6 SE 11 14 1017.4 - 0.0 - - - - - - -
24/09:30am 11.1 SSE 12 15 1017.6 - 0.0 - - - - - - -
24/09:00am 10.8 SSE 13 17 1017.7 - 0.0 - - - - - - -
24/08:30am 9.4 SSE 12 16 1017.7 - 0.0 - - - - - - -
24/08:00am 8.7 ENE 6 7 1017.6 - 0.0 - - - - - - -
24/07:30am 9.5 SE 11 16 1017.4 - 0.0 - - - - - - -
24/07:00am 9.4 SSE 6 8 1017.2 - 0.0 - - - - - - -
24/06:30am 9.7 SE 9 11 1017.1 - 0.0 - - - - - - -
24/06:00am 9.6 SSE 9 14 1017.0 - 0.0 - - - - - - -
24/05:30am 9.3 SSE 7 9 1016.9 - 0.0 - - - - - - -
24/05:00am 9.5 S 7 11 1016.9 - 0.0 - - - - - - -
24/04:30am 9.7 SSE 8 11 1016.9 - 0.0 - - - - - - -
24/04:00am 9.8 SSE 9 12 1016.9 - 0.0 - - - - - - -
24/03:30am 9.6 SSE 9 12 1017.0 - 0.0 - - - - - - -
24/03:00am 9.9 SSE 9 12 1017.2 - 0.0 - - - - - - -
24/02:30am 10.2 SSE 10 13 1017.4 - 0.0 - - - - - - -
24/02:00am 10.1 SSE 8 11 1017.5 - 0.0 - - - - - - -
24/01:30am 9.9 SSE 5 8 1017.6 - 0.0 - - - - - - -
24/01:00am 9.4 E 4 7 1017.8 - 0.0 - - - - - - -
24/12:30am 9.7 SE 5 8 1017.8 - 0.0 - - - - - - -
24/12:00am 9.6 SE 4 8 1017.9 - 0.0 - - - - - - -
 
Date/Time
EST
Temp
°C
Wind Pressure Rain since
9am
mm
Weather Cloud Vis
km
Sea
Height
m
Swell
Dir  Spd
kts
Gust
kts
hPa Trend Height
m
Period
s
Dir
23/11:30pm 9.8 SE 7 12 1018.1 - 0.0 - - - - - - -
23/11:00pm 9.9 SSE 10 13 1018.3 - 0.0 - - - - - - -
23/10:30pm 9.4 SSE 8 11 1018.3 - 0.0 - - - - - - -
23/10:00pm 6.7 NW 3 6 1018.3 - 0.0 - - - - - - -
23/09:30pm 9.1 SSE 6 8 1018.4 - 0.0 - - - - - - -
23/09:00pm 9.5 S 7 10 1018.4 - 0.0 - - - - - - -
23/08:30pm 9.7 SE 7 10 1018.4 - 0.0 - - - - - - -
23/08:00pm 9.6 SE 6 10 1018.5 - 0.0 - - - - - - -
23/07:30pm 9.2 SE 5 8 1018.6 - 0.0 - - - - - - -
23/07:00pm 9.0 SE 5 7 1018.5 - 0.0 - - - - - - -
23/06:30pm 9.4 SE 5 9 1018.3 - 0.0 - - - - - - -
23/06:00pm 9.7 SE 7 9 1018.0 - 0.0 - - - - - - -
23/05:30pm 10.1 SE 9 12 1017.8 - 0.0 - - - - - - -
23/05:00pm 10.7 SE 8 13 1017.7 - 0.0 - - - - - - -
23/04:30pm 11.3 SE 7 10 1017.8 - 0.0 - - - - - - -
23/04:00pm 11.2 SE 8 12 1017.7 - 0.0 - - - - - - -
23/03:30pm 11.5 SSE 8 10 1017.7 - 0.0 - - - - - - -
23/03:00pm 11.9 SSE 8 11 1017.8 - 0.0 - - - - - - -
23/02:30pm 11.9 SSE 8 11 1018.0 - 0.0 - - - - - - -
23/02:00pm 11.9 SSE 9 11 1017.9 - 0.0 - - - - - - -
23/01:30pm 11.8 S 9 12 1017.8 - 0.0 - - - - - - -
23/01:00pm 11.8 S 10 13 1017.7 - 0.0 - - - - - - -
23/12:30pm 12.4 S 6 9 1017.9 - 0.0 - - - - - - -
23/12:00pm 12.0 S 7 10 1018.0 - 0.0 - - - - - - -
23/11:30am 11.6 SSE 8 11 1018.1 - 0.0 - - - - - - -
23/11:00am 12.2 SSE 1 5 1018.1 - 0.0 - - - - - - -
23/10:30am 12.7 SE 4 6 1018.5 - 0.0 - - - - - - -
23/10:00am 12.2 E 3 5 1018.6 - 0.0 - - - - - - -
23/09:30am 11.7 SSE 4 6 1018.8 - 0.0 - - - - - - -
23/09:00am 11.8 ESE 4 5 1018.6 - 1.8 - - - - - - -
23/08:30am 11.3 ESE 5 7 1018.6 - 1.8 - - - - - - -
23/08:00am 9.5 SE 5 7 1018.3 - 1.8 - - - - - - -
23/07:30am 7.7 ESE 1 4 1018.0 - 1.8 - - - - - - -
23/07:00am 9.1 S 7 11 1017.9 - 1.8 - - - - - - -
23/06:30am 9.2 SE 6 11 1017.5 - 1.8 - - - - - - -
23/06:00am 9.2 ESE 5 8 1017.4 - 1.8 - - - - - - -
23/05:30am 9.3 SSE 8 12 1017.3 - 1.8 - - - - - - -
23/05:00am 9.4 SSE 9 12 1017.1 - 1.8 - - - - - - -
23/04:30am 9.4 SSE 8 12 1016.9 - 1.8 - - - - - - -
23/04:00am 9.0 SE 5 9 1016.7 - 1.8 - - - - - - -
23/03:30am 9.1 SSE 8 12 1016.9 - 1.8 - - - - - - -
23/03:00am 9.3 SE 8 11 1016.9 - 1.8 - - - - - - -

Other Formats:

Comma delimited format used in spreadsheet applications
http://www.bom.gov.au/fwo/IDV60701/IDV60701.94826.axf

JavaScript Object Notation format (JSON) in row-major order
http://www.bom.gov.au/fwo/IDV60701/IDV60701.94826.json